Time;durP1;ratioP1;P1;durP2;ratioP2;P2;SDS_P1;SDS_P2;PMS_P1;PMS_P2;Temp;Humidity;BMP_temperature;BMP_pressure;BME280_temperature;BME280_humidity;BME280_pressure;Samples;Min_cycle;Max_cycle;Signal;HPM_P1;HPM_P2
2022/03/14 00:01:17;;;;;;;17.70;12.37;;;;;;;1.44;100.00;96347.09;5051165;27;103832;-68
2022/03/14 00:03:50;;;;;;;15.90;11.60;;;;;;;1.43;100.00;96351.50;5049277;27;105532;-68
2022/03/14 00:06:18;;;;;;;13.97;10.77;;;;;;;1.17;100.00;96355.81;5049887;27;101882;-68
2022/03/14 00:08:45;;;;;;;15.43;11.33;;;;;;;1.10;100.00;96361.00;5052421;27;105295;-68
2022/03/14 00:11:15;;;;;;;14.57;11.47;;;;;;;1.14;100.00;96356.19;5050989;27;101788;-68
2022/03/14 00:13:46;;;;;;;14.23;11.63;;;;;;;0.75;100.00;96369.00;5051299;27;102279;-68
2022/03/14 00:16:20;;;;;;;12.80;11.40;;;;;;;0.74;100.00;96364.78;5031905;27;106784;-68
2022/03/14 00:18:51;;;;;;;16.80;12.00;;;;;;;0.78;100.00;96371.28;5049661;27;101783;-68
2022/03/14 00:21:20;;;;;;;15.17;11.83;;;;;;;0.58;100.00;96378.97;5049648;27;105079;-68
2022/03/14 00:23:47;;;;;;;15.03;11.10;;;;;;;0.68;100.00;96370.78;5049105;27;105402;-68
2022/03/14 00:26:14;;;;;;;18.33;12.03;;;;;;;0.93;100.00;96372.78;5049337;27;102476;-68
2022/03/14 00:28:42;;;;;;;13.57;10.87;;;;;;;0.38;100.00;96374.53;5052374;27;104959;-68
2022/03/14 00:31:09;;;;;;;13.57;11.10;;;;;;;0.60;100.00;96381.41;5050609;27;101855;-67
2022/03/14 00:33:39;;;;;;;14.03;10.70;;;;;;;0.59;100.00;96371.91;5049349;27;105412;-68
2022/03/14 00:36:08;;;;;;;14.70;11.40;;;;;;;0.63;100.00;96373.16;5048705;27;105723;-68
2022/03/14 00:38:36;;;;;;;14.23;10.93;;;;;;;0.79;100.00;96378.13;5050596;27;101817;-68
2022/03/14 00:41:04;;;;;;;14.97;10.73;;;;;;;0.55;100.00;96378.53;5049192;27;105601;-67
2022/03/14 00:43:31;;;;;;;15.07;10.57;;;;;;;0.78;100.00;96379.91;5048666;27;105345;-67
2022/03/14 00:45:58;;;;;;;13.03;10.57;;;;;;;0.51;100.00;96385.13;5048772;27;101886;-68
2022/03/14 00:48:26;;;;;;;14.23;10.57;;;;;;;0.53;100.00;96380.50;5049054;27;105753;-68
2022/03/14 00:50:54;;;;;;;18.90;11.87;;;;;;;0.39;100.00;96384.81;5053570;27;102616;-68
2022/03/14 00:53:22;;;;;;;13.93;10.57;;;;;;;0.19;100.00;96391.69;5048195;27;104883;-67
2022/03/14 00:55:49;;;;;;;14.37;10.97;;;;;;;0.40;100.00;96383.03;5048230;27;105267;-68
2022/03/14 00:58:17;;;;;;;16.07;11.20;;;;;;;0.59;100.00;96390.22;5048935;27;101876;-68
2022/03/14 01:00:45;;;;;;;13.37;10.47;;;;;;;0.64;100.00;96390.47;5048729;27;105561;-68
2022/03/14 01:03:13;;;;;;;14.83;11.43;;;;;;;0.66;100.00;96402.38;5048482;27;105102;-68
2022/03/14 01:05:41;;;;;;;13.57;10.40;;;;;;;0.63;100.00;96400.16;5048823;27;101917;-67
2022/03/14 01:08:08;;;;;;;14.33;11.13;;;;;;;0.75;100.00;96398.63;5048844;27;105132;-68
2022/03/14 01:10:37;;;;;;;13.93;10.67;;;;;;;0.76;100.00;96409.88;5048202;27;105162;-68
2022/03/14 01:13:04;;;;;;;15.37;10.57;;;;;;;0.41;100.00;96416.03;5052039;27;101804;-68
2022/03/14 01:15:31;;;;;;;15.37;10.43;;;;;;;0.42;100.00;96417.63;5048062;27;104946;-68
2022/03/14 01:18:00;;;;;;;13.03;10.60;;;;;;;0.28;100.00;96413.28;5048665;27;101844;-68
2022/03/14 01:20:27;;;;;;;12.70;9.70;;;;;;;0.53;100.00;96428.44;5048441;27;105234;-67
2022/03/14 01:22:55;;;;;;;13.50;10.03;;;;;;;0.69;100.00;96430.78;5049067;27;105376;-68
2022/03/14 01:25:23;;;;;;;13.13;10.37;;;;;;;0.80;100.00;96435.50;5048524;27;102136;-68
2022/03/14 01:27:52;;;;;;;13.90;10.40;;;;;;;0.83;100.00;96442.19;5031368;27;106158;-68
2022/03/14 01:30:20;;;;;;;14.40;10.17;;;;;;;0.87;100.00;96438.16;5047816;27;105247;-68
2022/03/14 01:32:47;;;;;;;14.87;9.97;;;;;;;0.86;100.00;96442.59;5048436;27;102449;-68
2022/03/14 01:35:13;;;;;;;14.97;10.07;;;;;;;0.92;100.00;96441.03;5051491;27;105069;-68
2022/03/14 01:37:41;;;;;;;12.73;10.30;;;;;;;0.94;100.00;96455.53;5048154;27;102347;-68
2022/03/14 01:40:10;;;;;;;13.47;10.00;;;;;;;0.86;100.00;96462.72;5048355;27;105379;-68
2022/03/14 01:42:38;;;;;;;13.17;9.40;;;;;;;0.84;100.00;96456.88;5047673;27;105497;-68
2022/03/14 01:45:08;;;;;;;13.90;10.50;;;;;;;0.80;100.00;96473.94;5032456;27;101870;-68
2022/03/14 01:47:36;;;;;;;14.83;11.07;;;;;;;0.70;100.00;96470.84;5048161;27;105469;-68
2022/03/14 01:50:04;;;;;;;13.90;10.43;;;;;;;0.63;100.00;96477.81;5047445;27;105855;-68
2022/03/14 01:52:31;;;;;;;13.10;10.67;;;;;;;0.64;100.00;96479.44;5049351;27;102015;-68
2022/03/14 01:54:58;;;;;;;12.23;10.37;;;;;;;0.72;100.00;96476.72;5007875;28;105055;-68
2022/03/14 01:57:25;;;;;;;13.20;10.87;;;;;;;0.61;100.00;96478.00;5010524;28;105270;-68
2022/03/14 01:59:53;;;;;;;13.63;10.80;;;;;;;0.63;100.00;96483.06;5009180;28;102308;-68
2022/03/14 02:02:23;;;;;;;13.23;10.43;;;;;;;0.67;100.00;96489.53;5006874;28;105653;-68
2022/03/14 02:04:50;;;;;;;11.97;9.50;;;;;;;0.68;100.00;96491.16;5007749;28;102328;-68
2022/03/14 02:07:17;;;;;;;13.73;10.50;;;;;;;0.63;100.00;96490.91;5008242;28;103780;-68
2022/03/14 02:09:45;;;;;;;12.13;9.97;;;;;;;0.71;100.00;96485.56;5007207;28;106002;-68
2022/03/14 02:12:13;;;;;;;13.83;10.33;;;;;;;0.65;100.00;96491.50;5007458;28;101804;-68
2022/03/14 02:14:41;;;;;;;13.63;10.53;;;;;;;0.21;100.00;96493.47;5007265;28;105714;-68
2022/03/14 02:17:10;;;;;;;14.57;10.43;;;;;;;0.12;100.00;96494.56;5008345;28;102613;-68
2022/03/14 02:19:38;;;;;;;14.40;10.23;;;;;;;0.35;100.00;96501.28;5010909;28;102059;-68
2022/03/14 02:22:13;;;;;;;13.00;10.40;;;;;;;-0.01;100.00;96518.75;5006918;28;104307;-68
2022/03/14 02:24:41;;;;;;;12.50;10.30;;;;;;;-0.06;100.00;96525.50;5007222;28;102024;-68
2022/03/14 02:27:08;;;;;;;14.10;10.97;;;;;;;-0.12;100.00;96523.59;5007310;28;105053;-68
2022/03/14 02:29:36;;;;;;;13.80;10.63;;;;;;;0.09;100.00;96519.28;5006824;28;104174;-68
2022/03/14 02:32:04;;;;;;;15.00;11.03;;;;;;;-0.05;100.00;96532.38;5007326;28;101995;-68
2022/03/14 02:34:31;;;;;;;16.23;10.60;;;;;;;0.01;100.00;96547.31;5007287;28;105034;-68
2022/03/14 02:36:57;;;;;;;14.80;10.90;;;;;;;0.16;100.00;96558.56;5023208;28;105747;-68
2022/03/14 02:39:25;;;;;;;15.07;10.77;;;;;;;0.21;100.00;96561.44;5010624;28;101940;-68
2022/03/14 02:41:53;;;;;;;12.80;10.70;;;;;;;0.25;100.00;96576.59;5006620;28;104689;-68
2022/03/14 02:44:20;;;;;;;13.97;10.87;;;;;;;0.26;100.00;96580.00;5023777;28;101906;-67
2022/03/14 02:46:47;;;;;;;13.90;10.50;;;;;;;0.25;100.00;96573.16;5007187;28;105555;-68
2022/03/14 02:49:15;;;;;;;13.33;10.50;;;;;;;0.40;100.00;96569.53;5006830;28;103727;-68
2022/03/14 02:51:42;;;;;;;14.20;11.03;;;;;;;0.50;100.00;96569.25;5007081;28;101907;-68
2022/03/14 02:54:11;;;;;;;12.87;10.80;;;;;;;0.69;100.00;96581.75;5033639;27;102722;-68
2022/03/14 02:56:40;;;;;;;14.50;11.00;;;;;;;0.79;100.00;96579.66;5046873;27;105250;-68
2022/03/14 02:59:11;;;;;;;15.13;11.37;;;;;;;0.85;100.00;96586.75;5047232;27;101930;-68
2022/03/14 03:01:39;;;;;;;14.00;10.67;;;;;;;0.75;100.00;96602.75;5050223;27;105230;-68
2022/03/14 03:04:06;;;;;;;12.77;10.77;;;;;;;0.69;100.00;96600.88;5048893;27;101691;-68
2022/03/14 03:06:33;;;;;;;14.37;10.73;;;;;;;0.75;100.00;96617.63;5047246;27;105513;-68
2022/03/14 03:09:03;;;;;;;17.03;11.50;;;;;;;0.60;100.00;96612.44;5046590;27;105374;-68
2022/03/14 03:11:30;;;;;;;14.27;11.03;;;;;;;0.66;100.00;96637.88;5047105;27;101910;-68
2022/03/14 03:13:59;;;;;;;13.07;10.67;;;;;;;0.57;100.00;96649.44;5046884;27;104939;-68
2022/03/14 03:16:27;;;;;;;12.83;10.70;;;;;;;0.73;100.00;96661.50;5046504;27;105261;-68
2022/03/14 03:18:55;;;;;;;16.07;11.17;;;;;;;0.70;100.00;96701.13;5048228;27;101840;-68
2022/03/14 03:21:23;;;;;;;15.73;11.20;;;;;;;0.73;100.00;96706.00;5050501;27;105392;-68
2022/03/14 03:23:50;;;;;;;13.37;11.10;;;;;;;0.87;100.00;96705.16;5053431;27;105673;-68
2022/03/14 03:26:22;;;;;;;15.37;10.97;;;;;;;0.78;100.00;96728.00;5050092;27;105448;-68
2022/03/14 03:28:48;;;;;;;14.47;11.63;;;;;;;0.65;100.00;96727.03;5049770;27;105541;-68
2022/03/14 03:31:22;;;;;;;15.10;10.90;;;;;;;0.75;100.00;96751.13;5050320;27;101989;-68
2022/03/14 03:33:51;;;;;;;13.40;10.37;;;;;;;0.58;100.00;96774.06;5052050;27;102304;-68
2022/03/14 03:36:18;;;;;;;12.90;10.80;;;;;;;0.67;100.00;96785.25;5049405;27;106258;-68
2022/03/14 03:38:45;;;;;;;13.10;10.53;;;;;;;0.75;100.00;96764.19;5050231;27;101952;-68
2022/03/14 03:41:12;;;;;;;13.70;10.50;;;;;;;0.84;100.00;96776.22;5051562;27;102475;-68
2022/03/14 03:43:39;;;;;;;13.30;10.47;;;;;;;0.91;100.00;96780.56;5049606;27;105807;-67
2022/03/14 03:46:07;;;;;;;13.03;10.07;;;;;;;0.92;100.00;96783.97;5053256;27;101863;-68
2022/03/14 03:48:35;;;;;;;13.97;10.50;;;;;;;0.86;100.00;96810.88;5049684;27;103818;-67
2022/03/14 03:51:03;;;;;;;14.73;10.73;;;;;;;0.83;100.00;96804.19;5050030;27;102169;-68
2022/03/14 03:53:30;;;;;;;15.37;11.33;;;;;;;0.85;100.00;96810.06;5051162;27;102373;-68
2022/03/14 03:55:57;;;;;;;13.93;10.93;;;;;;;0.95;100.00;96815.03;5049297;27;104216;-68
2022/03/14 03:58:24;;;;;;;13.83;10.50;;;;;;;1.03;100.00;96820.16;5049691;27;101893;-68
2022/03/14 04:00:51;;;;;;;13.30;10.50;;;;;;;1.09;100.00;96825.50;5049909;27;105183;-68
2022/03/14 04:03:20;;;;;;;13.47;10.17;;;;;;;1.19;100.00;96833.91;5049408;27;105865;-68
2022/03/14 04:05:49;;;;;;;15.77;10.77;;;;;;;1.17;100.00;96840.31;5049854;27;102185;-68
2022/03/14 04:08:16;;;;;;;13.77;10.87;;;;;;;1.18;100.00;96836.69;5052666;27;105041;-68
2022/03/14 04:10:53;;;;;;;12.60;10.20;;;;;;;1.10;100.00;96834.97;5049664;27;101838;-68
2022/03/14 04:13:23;;;;;;;12.37;10.97;;;;;;;1.26;100.00;96836.63;5049528;27;104760;-68
2022/03/14 04:15:51;;;;;;;13.10;11.47;;;;;;;1.10;100.00;96831.56;5049097;27;103766;-68
2022/03/14 04:18:19;;;;;;;14.27;11.30;;;;;;;1.15;100.00;96831.84;5049572;27;101843;-68
2022/03/14 04:20:47;;;;;;;12.13;9.67;;;;;;;1.13;100.00;96841.66;5049515;27;104966;-68
2022/03/14 04:23:17;;;;;;;12.27;10.00;;;;;;;1.13;100.00;96839.88;5049814;27;105368;-67
2022/03/14 04:25:44;;;;;;;12.10;10.60;;;;;;;1.26;100.00;96849.72;5049384;27;101994;-68
2022/03/14 04:28:11;;;;;;;14.57;10.57;;;;;;;1.14;100.00;96859.81;5049539;27;105193;-68
2022/03/14 04:30:39;;;;;;;13.13;10.33;;;;;;;1.20;100.00;96863.53;5051520;27;101861;-68
2022/03/14 04:33:07;;;;;;;11.60;10.30;;;;;;;1.17;100.00;96874.38;5049354;27;105152;-68
2022/03/14 04:35:35;;;;;;;12.30;10.30;;;;;;;1.22;100.00;96872.81;5048981;27;105271;-68
2022/03/14 04:38:02;;;;;;;13.63;9.80;;;;;;;1.35;100.00;96869.56;5049276;27;101845;-68
2022/03/14 04:40:32;;;;;;;13.30;10.23;;;;;;;1.27;100.00;96890.63;5049933;27;105487;-68
2022/03/14 04:43:04;;;;;;;13.33;9.97;;;;;;;1.29;100.00;96891.25;5048647;27;103775;-67
2022/03/14 04:45:31;;;;;;;14.07;10.07;;;;;;;1.32;100.00;96889.09;5049212;27;102157;-68
2022/03/14 04:47:59;;;;;;;14.80;10.77;;;;;;;1.33;100.00;96889.91;5049228;27;105688;-68
2022/03/14 04:50:27;;;;;;;12.13;10.13;;;;;;;1.10;100.00;96912.75;5051913;27;104080;-68
2022/03/14 04:52:54;;;;;;;14.27;10.27;;;;;;;1.10;100.00;96916.16;5032223;27;104850;-68
2022/03/14 04:55:21;;;;;;;11.43;10.20;;;;;;;1.05;100.00;96922.94;5048604;27;104215;-68
2022/03/14 04:57:50;;;;;;;13.70;9.87;;;;;;;1.05;100.00;96922.94;5048931;27;101925;-68
2022/03/14 05:00:18;;;;;;;14.93;10.60;;;;;;;1.04;100.00;96926.56;5049923;27;103929;-68
2022/03/14 05:02:45;;;;;;;13.73;10.53;;;;;;;0.99;100.00;96944.63;5048245;27;105668;-68
2022/03/14 05:05:12;;;;;;;12.80;10.73;;;;;;;1.11;100.00;96951.84;5048885;27;101901;-68
2022/03/14 05:07:41;;;;;;;14.17;10.97;;;;;;;0.99;100.00;96960.31;5048907;27;103926;-68
2022/03/14 05:10:09;;;;;;;12.20;10.47;;;;;;;1.04;100.00;96964.03;5048329;27;103985;-68
2022/03/14 05:12:36;;;;;;;14.80;10.80;;;;;;;1.01;100.00;96971.41;5052163;27;102155;-68
2022/03/14 05:15:06;;;;;;;13.90;10.97;;;;;;;1.09;100.00;96966.13;5048351;27;105036;-68
2022/03/14 05:17:34;;;;;;;15.73;10.57;;;;;;;1.09;100.00;96974.00;5048323;27;101831;-68
2022/03/14 05:20:03;;;;;;;13.77;10.73;;;;;;;0.83;100.00;96981.41;5048790;27;105119;-68
2022/03/14 05:22:30;;;;;;;16.70;11.20;;;;;;;0.86;100.00;96981.84;5048164;27;105360;-68
2022/03/14 05:24:57;;;;;;;14.33;11.30;;;;;;;1.04;100.00;97003.31;5048393;27;101955;-68
2022/03/14 05:27:24;;;;;;;16.87;11.20;;;;;;;0.95;100.00;97004.38;5048335;27;104086;-68
2022/03/14 05:29:53;;;;;;;13.50;10.70;;;;;;;0.81;100.00;97015.59;5048095;27;103966;-68
2022/03/14 05:32:22;;;;;;;19.07;11.57;;;;;;;0.80;100.00;97023.63;5048503;27;101759;-68
2022/03/14 05:34:48;;;;;;;14.33;10.03;;;;;;;0.75;100.00;97025.94;5050957;27;105218;-68
2022/03/14 05:37:17;;;;;;;15.40;10.00;;;;;;;0.79;100.00;97027.22;5048075;27;101876;-68
2022/03/14 05:39:43;;;;;;;15.13;11.03;;;;;;;0.91;100.00;97029.28;5048068;27;105805;-68
2022/03/14 05:42:11;;;;;;;15.23;9.73;;;;;;;1.04;100.00;97045.19;5046700;27;106063;-68
2022/03/14 05:44:38;;;;;;;15.23;11.53;;;;;;;0.97;100.00;97052.13;5049234;27;102018;-64
2022/03/14 05:47:05;;;;;;;14.63;11.23;;;;;;;0.98;100.00;97058.16;5047206;27;105587;-64
2022/03/14 05:49:34;;;;;;;12.40;10.77;;;;;;;0.86;100.00;97064.81;5048715;27;102452;-64
2022/03/14 05:52:01;;;;;;;14.00;11.40;;;;;;;0.84;100.00;97069.41;5047850;27;101929;-64
2022/03/14 05:54:28;;;;;;;15.00;11.53;;;;;;;0.87;100.00;97076.91;5047488;27;105154;-64
2022/03/14 05:57:00;;;;;;;15.17;10.67;;;;;;;0.91;100.00;97084.25;5050824;27;105561;-64
2022/03/14 05:59:27;;;;;;;17.80;11.43;;;;;;;1.09;100.00;97084.78;5047892;27;105501;-64
2022/03/14 06:01:54;;;;;;;20.70;11.73;;;;;;;1.19;100.00;97092.41;5048926;27;103158;-65
2022/03/14 06:04:21;;;;;;;15.73;10.90;;;;;;;1.35;100.00;97092.28;5047821;27;101936;-65
2022/03/14 06:06:50;;;;;;;15.67;11.20;;;;;;;1.39;100.00;97109.28;5047894;27;105062;-65
2022/03/14 06:09:17;;;;;;;17.20;10.77;;;;;;;1.52;100.00;97110.31;5047428;27;105352;-64
2022/03/14 06:11:44;;;;;;;14.77;11.37;;;;;;;1.69;100.00;97111.78;5047229;27;101850;-65
2022/03/14 06:14:12;;;;;;;15.73;11.77;;;;;;;1.97;100.00;97117.28;5049397;27;102413;-64
2022/03/14 06:16:39;;;;;;;16.23;11.30;;;;;;;2.19;100.00;97124.25;5047196;27;104994;-64
2022/03/14 06:19:06;;;;;;;18.60;10.93;;;;;;;2.33;100.00;97126.06;5051111;27;101810;-65
2022/03/14 06:21:35;;;;;;;15.53;11.10;;;;;;;2.45;100.00;97125.44;5047130;27;103899;-64
2022/03/14 06:24:06;;;;;;;14.30;11.30;;;;;;;2.57;100.00;97142.34;5047258;27;101879;-64
2022/03/14 06:26:34;;;;;;;22.73;13.83;;;;;;;2.65;100.00;97141.44;5048527;27;102881;-64
2022/03/14 06:29:01;;;;;;;18.73;12.80;;;;;;;2.76;100.00;97147.03;5048521;27;102576;-64
2022/03/14 06:31:31;;;;;;;20.73;12.43;;;;;;;3.02;100.00;97147.34;5048846;27;101811;-64
2022/03/14 06:33:58;;;;;;;20.30;13.60;;;;;;;3.12;100.00;97149.69;5048029;27;102280;-64
2022/03/14 06:36:27;;;;;;;19.33;12.50;;;;;;;3.29;100.00;97153.72;5048508;27;102621;-65
2022/03/14 06:38:56;;;;;;;19.23;13.37;;;;;;;3.31;100.00;97162.22;5050812;27;101785;-64
2022/03/14 06:41:25;;;;;;;16.90;12.53;;;;;;;3.46;100.00;97157.72;5046792;27;104054;-64
2022/03/14 06:43:53;;;;;;;18.60;12.93;;;;;;;3.58;100.00;97164.09;5047595;27;101797;-64
2022/03/14 06:46:20;;;;;;;20.53;13.47;;;;;;;3.61;100.00;97174.25;5046217;27;105078;-64
2022/03/14 06:48:49;;;;;;;22.43;13.23;;;;;;;3.83;100.00;97175.88;5047071;27;103695;-65
2022/03/14 06:51:17;;;;;;;17.03;12.37;;;;;;;3.84;100.00;97177.50;5047199;27;101973;-64
2022/03/14 06:53:44;;;;;;;17.87;13.60;;;;;;;3.93;100.00;97184.28;5047214;27;105600;-64
2022/03/14 06:56:14;;;;;;;17.50;13.10;;;;;;;3.99;100.00;97183.50;5049483;27;105022;-65
2022/03/14 06:58:42;;;;;;;18.33;13.60;;;;;;;4.19;100.00;97185.28;5050406;27;101983;-64
2022/03/14 07:01:13;;;;;;;18.87;13.27;;;;;;;4.38;100.00;97187.25;5053280;27;105130;-64
2022/03/14 07:03:40;;;;;;;17.90;14.47;;;;;;;4.55;100.00;97187.75;5050119;27;102125;-65
2022/03/14 07:06:06;;;;;;;25.40;14.80;;;;;;;4.69;100.00;97194.75;5050151;27;104931;-64
2022/03/14 07:08:35;;;;;;;20.17;14.37;;;;;;;4.85;100.00;97183.88;5050226;27;105333;-64
2022/03/14 07:11:02;;;;;;;22.00;13.77;;;;;;;5.02;100.00;97191.25;5051862;27;101829;-64
2022/03/14 07:13:30;;;;;;;22.57;14.97;;;;;;;5.19;100.00;97191.72;5050407;27;105222;-64
2022/03/14 07:16:00;;;;;;;21.27;14.67;;;;;;;5.28;100.00;97195.81;5049960;27;102932;-64
2022/03/14 07:18:29;;;;;;;21.57;14.43;;;;;;;5.41;100.00;97193.22;5050321;27;101890;-64
2022/03/14 07:20:57;;;;;;;21.97;15.50;;;;;;;5.38;100.00;97191.81;5050462;27;105112;-64
2022/03/14 07:23:26;;;;;;;21.60;15.10;;;;;;;5.44;100.00;97196.28;5052727;27;106777;-66
2022/03/14 07:25:53;;;;;;;23.33;15.47;;;;;;;5.41;100.00;97212.50;5048923;27;105564;-67
2022/03/14 07:28:20;;;;;;;22.27;15.07;;;;;;;5.61;100.00;97209.91;5051123;27;103065;-67
2022/03/14 07:30:50;;;;;;;24.63;16.20;;;;;;;5.72;100.00;97214.63;5050148;27;102170;-67
2022/03/14 07:33:18;;;;;;;23.97;15.63;;;;;;;5.86;100.00;97216.28;5051557;27;102606;-65
2022/03/14 07:35:47;;;;;;;22.53;16.27;;;;;;;6.06;100.00;97217.94;5049387;27;105324;-65
2022/03/14 07:38:15;;;;;;;20.60;15.37;;;;;;;6.30;100.00;97230.56;5050309;27;102469;-65
2022/03/14 07:40:42;;;;;;;22.27;15.30;;;;;;;6.59;100.00;97235.41;5050341;27;106637;-65
2022/03/14 07:43:23;;;;;;;24.00;15.47;;;;;;;6.91;100.00;97233.75;5051640;27;103087;-65
2022/03/14 07:45:53;;;;;;;23.00;16.17;;;;;;;7.19;100.00;97248.31;5053728;27;101757;-65
2022/03/14 07:48:21;;;;;;;23.43;14.63;;;;;;;7.42;100.00;97255.78;5049645;27;105293;-65
2022/03/14 07:51:04;;;;;;;21.30;14.33;;;;;;;7.85;100.00;97259.47;5050183;27;101934;-63
2022/03/14 07:53:31;;;;;;;15.30;10.70;;;;;;;8.15;100.00;97260.47;5050668;27;102632;-63
2022/03/14 07:55:58;;;;;;;11.33;8.03;;;;;;;8.68;100.00;97269.72;5051083;27;101921;-62
2022/03/14 07:58:27;;;;;;;9.80;7.67;;;;;;;8.96;100.00;97264.75;5051098;27;101989;-62
2022/03/14 08:01:12;;;;;;;7.93;7.00;;;;;;;9.20;100.00;97262.06;5043589;27;105249;-62
2022/03/14 08:03:40;;;;;;;9.93;7.13;;;;;;;9.47;100.00;97267.88;5036864;27;102930;-63
2022/03/14 08:06:07;;;;;;;8.17;6.90;;;;;;;9.69;100.00;97258.41;5050066;27;102070;-62
2022/03/14 08:08:35;;;;;;;7.97;6.77;;;;;;;9.79;100.00;97266.66;5051374;27;102769;-62
2022/03/14 08:11:42;;;;;;;8.40;6.57;;;;;;;9.87;100.00;97269.03;5036796;27;101988;-62
2022/03/14 08:14:16;;;;;;;6.93;6.10;;;;;;;10.28;100.00;97267.25;5032109;27;105160;-61
2022/03/14 08:16:43;;;;;;;7.67;6.20;;;;;;;10.53;100.00;97267.09;5050258;27;104096;-61
2022/03/14 08:19:11;;;;;;;8.20;5.90;;;;;;;10.56;100.00;97274.59;5050854;27;102058;-60
2022/03/14 08:22:14;;;;;;;7.90;6.20;;;;;;;10.95;100.00;97279.28;5050779;27;106054;-61
2022/03/14 08:24:41;;;;;;;8.03;6.17;;;;;;;10.84;100.00;97280.09;5050257;27;105150;-59
2022/03/14 08:27:08;;;;;;;7.27;6.27;;;;;;;10.96;100.00;97288.88;5050717;27;102124;-60
2022/03/14 08:29:39;;;;;;;6.20;5.60;;;;;;;11.42;100.00;97286.19;5050688;27;105873;-60
2022/03/14 08:32:08;;;;;;;6.53;5.83;;;;;;;11.46;100.00;97290.03;5053467;27;105402;-63
2022/03/14 08:34:36;;;;;;;6.03;5.43;;;;;;;11.50;100.00;97293.84;5050700;27;105510;-60
2022/03/14 08:37:04;;;;;;;7.37;5.87;;;;;;;11.78;100.00;97286.72;5051391;27;102539;-60
2022/03/14 08:39:31;;;;;;;6.33;5.73;;;;;;;11.98;100.00;97289.00;5052037;27;101715;-60
2022/03/14 08:41:59;;;;;;;6.50;5.80;;;;;;;11.82;100.00;97295.09;5044150;27;104064;-60
2022/03/14 08:44:30;;;;;;;6.20;5.60;;;;;;;11.62;100.00;97303.44;5029559;28;105265;-61
2022/03/14 08:46:57;;;;;;;6.67;5.13;;;;;;;12.05;100.00;97301.13;5031496;28;103209;-60
2022/03/14 08:49:24;;;;;;;7.23;5.60;;;;;;;12.20;100.00;97301.44;5050233;27;105611;-60
2022/03/14 08:51:55;;;;;;;6.10;5.50;;;;;;;12.47;100.00;97301.66;5053347;27;105462;-61
2022/03/14 08:54:22;;;;;;;6.60;5.63;;;;;;;12.42;100.00;97304.25;5049947;27;105145;-60
2022/03/14 08:56:50;;;;;;;5.73;5.23;;;;;;;12.50;100.00;97306.53;5049576;27;105386;-60
2022/03/14 08:59:16;;;;;;;5.67;4.57;;;;;;;12.10;100.00;97305.78;5050329;27;101898;-60
2022/03/14 09:02:14;;;;;;;4.50;3.97;;;;;;;12.26;100.00;97315.69;5050255;27;103735;-60
2022/03/14 09:04:45;;;;;;;4.97;4.50;;;;;;;12.39;97.95;97316.22;5049430;27;105085;-60
2022/03/14 09:07:25;;;;;;;4.00;3.70;;;;;;;12.37;98.30;97317.50;5050178;27;101898;-60
2022/03/14 09:10:03;;;;;;;4.10;3.70;;;;;;;12.73;95.76;97307.22;5050063;27;106599;-59
2022/03/14 09:12:33;;;;;;;4.23;3.83;;;;;;;12.83;94.83;97314.56;5049343;27;105257;-60
2022/03/14 09:15:33;;;;;;;4.17;3.40;;;;;;;12.85;89.82;97312.47;5054743;27;101801;-60
2022/03/14 09:18:03;;;;;;;3.70;3.20;;;;;;;12.51;91.43;97321.47;5049164;27;105477;-61
2022/03/14 09:20:49;;;;;;;3.60;3.30;;;;;;;12.54;89.67;97321.00;5049991;27;101848;-60
2022/03/14 09:23:20;;;;;;;3.40;3.10;;;;;;;12.39;90.12;97323.41;5050154;27;105412;-61
2022/03/14 09:25:47;;;;;;;3.07;2.87;;;;;;;12.38;90.08;97319.91;5048880;27;105192;-60
2022/03/14 09:28:15;;;;;;;3.13;2.90;;;;;;;12.67;85.85;97320.69;5049760;27;101931;-60
2022/03/14 09:31:00;;;;;;;3.10;2.90;;;;;;;12.92;81.33;97321.13;5051162;27;102571;-60
2022/03/14 09:33:30;;;;;;;3.07;1.97;;;;;;;13.06;78.35;97322.44;5049146;27;105081;-60
2022/03/14 09:35:57;;;;;;;2.40;2.20;;;;;;;13.21;76.28;97325.38;5049708;27;101860;-60
2022/03/14 09:38:26;;;;;;;2.50;2.20;;;;;;;12.90;76.06;97323.22;5052529;27;104952;-59
2022/03/14 09:40:56;;;;;;;2.10;2.00;;;;;;;13.05;76.10;97329.66;5049518;27;101947;-60
2022/03/14 09:43:52;;;;;;;2.03;1.87;;;;;;;13.16;74.39;97317.28;5049743;27;105229;-60
2022/03/14 09:46:22;;;;;;;1.90;1.80;;;;;;;13.50;72.29;97324.19;5048838;27;105311;-60
2022/03/14 09:48:52;;;;;;;2.03;1.93;;;;;;;13.57;70.87;97316.81;5049673;27;101824;-59
2022/03/14 09:51:23;;;;;;;4.20;2.30;;;;;;;13.96;70.30;97319.19;5049326;27;105509;-60
2022/03/14 09:53:52;;;;;;;1.87;1.50;;;;;;;13.82;67.97;97325.16;5048607;27;105699;-60
2022/03/14 09:56:20;;;;;;;1.50;1.40;;;;;;;13.25;68.69;97331.84;5035674;27;101711;-60
2022/03/14 09:58:49;;;;;;;1.80;1.70;;;;;;;13.62;70.41;97316.91;5050287;27;101756;-59
2022/03/14 10:01:17;;;;;;;1.83;1.50;;;;;;;13.91;66.40;97313.00;5036932;27;103741;-59
2022/03/14 10:03:44;;;;;;;1.77;1.67;;;;;;;14.11;65.44;97314.03;5029164;28;105474;-60
2022/03/14 10:06:10;;;;;;;2.17;1.40;;;;;;;14.16;65.71;97303.41;5042321;27;105366;-59
2022/03/14 10:08:38;;;;;;;1.80;1.70;;;;;;;14.23;65.54;97300.56;5049265;27;101941;-60
2022/03/14 10:11:09;;;;;;;1.97;1.77;;;;;;;14.48;62.25;97301.66;5050656;27;102842;-59
2022/03/14 10:13:44;;;;;;;1.80;1.70;;;;;;;14.72;60.44;97304.81;5037833;27;102840;-60
2022/03/14 10:16:10;;;;;;;1.73;1.63;;;;;;;14.39;58.80;97305.03;5044107;27;101865;-59
2022/03/14 10:18:53;;;;;;;1.70;1.60;;;;;;;14.42;60.72;97307.19;5049176;27;105076;-59
2022/03/14 10:21:34;;;;;;;1.60;1.43;;;;;;;15.08;57.04;97304.03;5048712;27;105239;-60
2022/03/14 10:24:03;;;;;;;1.83;1.73;;;;;;;14.57;57.71;97302.00;5041824;27;101705;-59
2022/03/14 10:26:33;;;;;;;2.37;1.60;;;;;;;14.43;57.24;97296.25;5031390;27;103432;-59
2022/03/14 10:29:00;;;;;;;1.60;1.50;;;;;;;14.59;56.25;97297.19;5041584;27;101839;-59
2022/03/14 10:31:36;;;;;;;1.90;1.47;;;;;;;14.55;56.17;97301.44;5054127;27;102587;-60
2022/03/14 10:34:05;;;;;;;2.83;1.80;;;;;;;14.68;56.34;97307.19;5053624;27;102852;-60
2022/03/14 10:36:44;;;;;;;1.67;1.57;;;;;;;14.63;55.24;97309.00;5052541;27;101864;-59
2022/03/14 10:39:17;;;;;;;2.50;1.70;;;;;;;15.01;56.67;97306.97;5052627;27;105001;-59
2022/03/14 10:41:48;;;;;;;2.20;2.00;;;;;;;15.46;52.89;97307.31;5052334;27;103148;-65
2022/03/14 10:44:26;;;;;;;2.17;1.53;;;;;;;15.58;52.57;97309.81;5054126;27;101800;-59
2022/03/14 10:46:54;;;;;;;1.60;1.50;;;;;;;15.60;51.60;97308.44;5055322;27;104158;-66
2022/03/14 10:49:28;;;;;;;1.90;1.80;;;;;;;15.46;51.12;97311.84;5041443;27;102085;-61
2022/03/14 10:51:57;;;;;;;1.50;1.40;;;;;;;15.88;50.05;97318.00;5032138;28;104908;-61
2022/03/14 10:54:24;;;;;;;2.20;2.00;;;;;;;16.18;47.99;97318.16;5032279;27;102887;-62
2022/03/14 10:57:08;;;;;;;1.70;1.60;;;;;;;16.13;47.65;97315.44;5033250;28;101883;-61
2022/03/14 10:59:40;;;;;;;2.10;1.63;;;;;;;16.52;46.82;97313.97;5033409;28;102854;-61
2022/03/14 11:02:09;;;;;;;1.90;1.80;;;;;;;17.01;44.60;97309.75;5032513;28;104231;-61
2022/03/14 11:04:48;;;;;;;1.70;1.60;;;;;;;17.05;44.14;97308.16;5031742;27;102044;-62
2022/03/14 11:07:16;;;;;;;1.73;1.63;;;;;;;16.76;45.11;97313.22;5034692;28;105553;-61
2022/03/14 11:09:54;;;;;;;2.40;1.73;;;;;;;15.72;45.92;97308.25;5031691;28;101935;-61
2022/03/14 11:12:25;;;;;;;1.60;1.50;;;;;;;16.54;46.77;97314.50;5033008;27;102621;-61
2022/03/14 11:15:13;;;;;;;1.67;1.57;;;;;;;16.72;45.77;97311.31;5031135;28;105675;-61
2022/03/14 11:17:40;;;;;;;1.87;1.77;;;;;;;16.21;45.25;97302.31;5031618;28;101777;-61
2022/03/14 11:20:40;;;;;;;2.30;2.10;;;;;;;15.79;45.32;97308.81;5031464;28;105203;-61
2022/03/14 11:23:08;;;;;;;3.00;2.00;;;;;;;16.23;45.11;97297.50;5030857;28;105864;-61
2022/03/14 11:25:39;;;;;;;2.10;1.90;;;;;;;16.27;45.65;97297.75;5031307;28;101927;-61